Time;durP1;ratioP1;P1;durP2;ratioP2;P2;SDS_P1;SDS_P2;PMS_P1;PMS_P2;Temp;Humidity;BMP_temperature;BMP_pressure;BME280_temperature;BME280_humidity;BME280_pressure;Samples;Min_cycle;Max_cycle;Signal;HPM_P1;HPM_P2
2022/11/06 00:01:14;;;;;;;4.45;2.42;;;10.10;99.90;;;;;;4937490;29;20472;-64
2022/11/06 00:03:40;;;;;;;5.72;2.20;;;10.10;99.90;;;;;;4937474;29;20039;-64
2022/11/06 00:08:58;;;;;;;4.20;2.15;;;10.10;99.90;;;;;;4937133;29;20142;-64
2022/11/06 00:11:24;;;;;;;5.22;2.92;;;10.10;99.90;;;;;;4937430;29;20555;-64
2022/11/06 00:13:51;;;;;;;4.20;2.50;;;10.10;99.90;;;;;;4937320;29;20127;-65
2022/11/06 00:16:18;;;;;;;4.32;2.78;;;10.30;99.90;;;;;;4937334;29;20411;-65
2022/11/06 00:18:45;;;;;;;7.72;3.28;;;10.00;99.90;;;;;;4920120;29;20105;-64
2022/11/06 00:21:16;;;;;;;7.88;3.05;;;10.10;99.90;;;;;;4936889;29;20055;-64
2022/11/06 00:23:43;;;;;;;6.80;2.65;;;10.00;99.90;;;;;;4937192;29;20082;-64
2022/11/06 00:26:11;;;;;;;5.88;2.58;;;10.00;99.90;;;;;;4937057;29;20055;-64
2022/11/06 00:28:37;;;;;;;7.55;2.67;;;10.00;99.90;;;;;;4937023;29;20047;-64
2022/11/06 00:31:04;;;;;;;3.22;2.00;;;10.00;99.90;;;;;;4936484;29;20052;-65
2022/11/06 00:33:30;;;;;;;3.50;2.15;;;10.00;99.90;;;;;;4919133;29;20055;-64
2022/11/06 00:35:56;;;;;;;4.95;2.70;;;10.00;99.90;;;;;;4936874;29;20502;-64
2022/11/06 00:38:22;;;;;;;4.28;2.47;;;9.90;99.90;;;;;;4919570;29;20435;-64
2022/11/06 00:40:48;;;;;;;5.05;2.55;;;9.90;99.90;;;;;;4936816;29;20051;-65
2022/11/06 00:43:14;;;;;;;4.68;2.58;;;9.80;99.90;;;;;;4936820;29;20043;-64
2022/11/06 00:45:39;;;;;;;6.78;2.67;;;9.80;99.90;;;;;;4936736;29;20058;-64
2022/11/06 00:48:05;;;;;;;4.82;3.17;;;9.80;99.90;;;;;;4919372;29;20055;-64
2022/11/06 00:50:32;;;;;;;3.60;2.60;;;9.70;99.90;;;;;;4936686;29;20035;-64
2022/11/06 00:52:58;;;;;;;8.38;2.80;;;9.60;99.90;;;;;;4936338;29;20054;-64
2022/11/06 00:55:24;;;;;;;4.72;2.40;;;9.60;99.90;;;;;;4919260;29;20538;-64
2022/11/06 00:57:49;;;;;;;9.35;2.85;;;9.60;99.90;;;;;;4936558;29;20043;-65
2022/11/06 01:00:17;;;;;;;6.40;2.90;;;9.60;99.90;;;;;;4936502;29;20043;-64
2022/11/06 01:02:44;;;;;;;6.80;2.83;;;9.50;99.90;;;;;;4936496;29;20118;-64
2022/11/06 01:05:11;;;;;;;4.20;2.40;;;9.50;99.90;;;;;;4936380;29;20047;-64
2022/11/06 01:07:36;;;;;;;5.85;3.10;;;9.50;99.90;;;;;;4936382;29;20098;-64
2022/11/06 01:10:03;;;;;;;4.43;2.50;;;9.50;99.90;;;;;;4918968;29;20055;-64
2022/11/06 01:12:31;;;;;;;4.82;3.33;;;9.50;99.90;;;;;;4935956;29;20087;-64
2022/11/06 01:14:57;;;;;;;5.97;2.97;;;9.60;99.90;;;;;;4919014;29;20048;-64
2022/11/06 01:17:23;;;;;;;6.65;3.17;;;9.60;99.90;;;;;;4935823;29;20035;-64
2022/11/06 01:19:48;;;;;;;6.55;2.70;;;9.60;99.90;;;;;;4936151;29;20091;-64
2022/11/06 01:22:14;;;;;;;5.25;3.15;;;9.60;99.90;;;;;;4936238;29;20118;-65
2022/11/06 01:24:40;;;;;;;7.18;3.13;;;9.60;99.90;;;;;;4918713;29;20051;-64
2022/11/06 01:27:05;;;;;;;4.35;2.83;;;9.50;99.90;;;;;;4936072;29;20058;-65
2022/11/06 01:29:32;;;;;;;4.35;2.78;;;9.50;99.90;;;;;;4935696;29;20130;-65
2022/11/06 01:31:57;;;;;;;5.10;2.45;;;9.50;99.90;;;;;;4935984;29;20040;-65
2022/11/06 01:34:23;;;;;;;6.28;3.30;;;9.50;99.90;;;;;;4935849;29;20051;-65
2022/11/06 01:36:49;;;;;;;4.70;3.08;;;9.60;99.90;;;;;;4935513;29;20130;-65
2022/11/06 01:39:15;;;;;;;5.68;2.75;;;9.40;99.90;;;;;;4935482;29;20183;-65
2022/11/06 01:41:46;;;;;;;4.80;2.63;;;9.40;99.90;;;;;;4936090;29;20078;-65
2022/11/06 01:44:34;;;;;;;3.65;2.60;;;9.30;99.90;;;;;;4935765;29;20039;-65
2022/11/06 01:47:03;;;;;;;3.53;2.45;;;9.30;99.90;;;;;;4935616;29;20047;-64
2022/11/06 01:49:35;;;;;;;8.32;3.13;;;9.20;99.90;;;;;;4935696;29;20672;-65
2022/11/06 01:52:08;;;;;;;5.50;3.10;;;9.30;99.90;;;;;;4935578;29;20050;-65
2022/11/06 01:54:37;;;;;;;6.05;2.90;;;9.30;99.90;;;;;;4935392;29;20043;-65
2022/11/06 01:57:03;;;;;;;3.92;2.92;;;9.30;99.90;;;;;;4935529;29;20498;-65
2022/11/06 01:59:32;;;;;;;5.00;2.70;;;9.30;99.90;;;;;;4935504;29;20051;-65
2022/11/06 02:01:58;;;;;;;5.15;3.33;;;9.20;99.90;;;;;;4935214;29;20040;-65
2022/11/06 02:04:28;;;;;;;4.80;3.10;;;9.20;99.90;;;;;;4935536;29;20042;-65
2022/11/06 02:06:56;;;;;;;8.73;3.05;;;9.30;99.90;;;;;;4935440;29;20043;-65
2022/11/06 02:09:23;;;;;;;6.07;3.45;;;9.50;99.90;;;;;;4918306;29;20082;-65
2022/11/06 02:12:09;;;;;;;6.30;2.67;;;9.80;99.90;;;;;;4935358;29;20391;-65
2022/11/06 02:15:02;;;;;;;7.57;3.38;;;9.30;99.90;;;;;;4935409;29;20518;-65
2022/11/06 02:17:49;;;;;;;5.28;3.13;;;9.20;99.90;;;;;;4917966;29;20086;-65
2022/11/06 02:20:55;;;;;;;6.15;3.13;;;9.20;99.90;;;;;;4935400;29;20043;-65
2022/11/06 02:24:11;;;;;;;6.40;3.72;;;9.20;99.90;;;;;;4935041;29;20596;-65
2022/11/06 02:27:00;;;;;;;5.57;2.85;;;9.20;99.90;;;;;;4902925;29;20048;-65
2022/11/06 02:29:37;;;;;;;6.13;3.50;;;9.20;99.90;;;;;;4935249;29;20043;-65
2022/11/06 02:32:12;;;;;;;3.88;2.65;;;9.20;99.90;;;;;;4934977;29;20110;-65
2022/11/06 02:34:40;;;;;;;9.70;3.05;;;9.20;99.90;;;;;;4934928;29;20044;-66
2022/11/06 02:37:12;;;;;;;5.10;3.63;;;9.20;99.90;;;;;;4918350;29;20122;-65
2022/11/06 02:39:41;;;;;;;8.38;4.13;;;9.10;99.90;;;;;;4917623;29;20183;-65
2022/11/06 02:42:09;;;;;;;6.20;3.47;;;9.20;99.90;;;;;;4935149;29;20047;-65
2022/11/06 02:44:38;;;;;;;5.50;3.33;;;9.20;99.90;;;;;;4935103;29;20503;-65
2022/11/06 02:47:09;;;;;;;3.70;3.10;;;9.20;99.90;;;;;;4935103;29;20054;-65
2022/11/06 02:49:44;;;;;;;4.50;2.78;;;9.20;99.90;;;;;;4935142;29;20047;-65
2022/11/06 02:52:25;;;;;;;6.30;3.45;;;9.30;99.90;;;;;;4901939;29;20052;-65
2022/11/06 02:55:02;;;;;;;5.93;3.88;;;9.20;99.90;;;;;;4935260;29;20050;-64
2022/11/06 02:57:35;;;;;;;8.90;3.53;;;9.20;99.90;;;;;;4938767;29;20483;-65
2022/11/06 03:00:06;;;;;;;5.57;3.05;;;9.30;99.90;;;;;;4921655;29;20403;-65
2022/11/06 03:02:47;;;;;;;4.75;2.80;;;9.20;99.90;;;;;;4938657;29;20503;-65
2022/11/06 03:05:19;;;;;;;;;;;9.20;99.90;;;;;;4939081;29;20043;-65
2022/11/06 03:08:06;;;;;;;5.63;3.35;;;9.20;99.90;;;;;;4921328;29;19978;-65
2022/11/06 03:10:39;;;;;;;5.07;2.85;;;9.20;99.90;;;;;;4921430;29;20488;-65
2022/11/06 03:13:20;;;;;;;8.00;3.22;;;9.20;99.90;;;;;;4938268;29;20490;-65
2022/11/06 03:16:04;;;;;;;6.05;2.72;;;9.20;99.90;;;;;;4938055;29;20055;-65
2022/11/06 03:18:39;;;;;;;5.10;2.38;;;9.20;99.90;;;;;;4938244;29;20098;-65
2022/11/06 03:21:25;;;;;;;5.30;2.88;;;9.20;99.90;;;;;;4938211;29;20055;-65
2022/11/06 03:23:57;;;;;;;4.40;2.60;;;9.20;99.90;;;;;;4920922;29;20047;-65
2022/11/06 03:26:39;;;;;;;4.40;2.55;;;9.20;99.90;;;;;;4937859;29;20048;-67
2022/11/06 03:29:22;;;;;;;3.50;2.13;;;9.20;99.90;;;;;;4938218;29;20047;-65
2022/11/06 03:32:13;;;;;;;5.88;2.90;;;9.20;99.90;;;;;;4937766;29;20052;-65
2022/11/06 03:34:45;;;;;;;6.13;3.13;;;9.20;99.90;;;;;;4929394;29;20468;-65
2022/11/06 03:37:44;;;;;;;3.65;2.88;;;9.10;99.90;;;;;;4937649;29;20102;-65
2022/11/06 03:40:15;;;;;;;6.72;2.90;;;9.10;99.90;;;;;;4915145;29;20056;-65
2022/11/06 03:42:43;;;;;;;5.82;2.95;;;9.10;99.90;;;;;;4937747;29;20079;-65
2022/11/06 03:45:18;;;;;;;5.45;3.17;;;9.10;99.90;;;;;;4920803;29;20059;-65
2022/11/06 03:47:54;;;;;;;3.80;2.63;;;9.10;99.90;;;;;;4937905;29;20079;-65
2022/11/06 03:50:49;;;;;;;8.13;2.90;;;9.10;99.90;;;;;;4937819;29;20075;-65
2022/11/06 03:53:26;;;;;;;4.45;2.80;;;9.10;99.90;;;;;;4937775;29;20047;-65
2022/11/06 03:55:58;;;;;;;6.28;3.05;;;9.10;99.90;;;;;;4920324;29;20048;-65
2022/11/06 03:58:32;;;;;;;6.15;2.90;;;9.10;99.90;;;;;;4937697;29;20039;-65
2022/11/06 04:01:02;;;;;;;4.90;2.47;;;9.10;99.90;;;;;;4920253;29;20043;-65
2022/11/06 04:03:35;;;;;;;4.45;3.03;;;9.10;99.90;;;;;;4937299;29;20048;-65
2022/11/06 04:06:20;;;;;;;6.30;3.33;;;9.10;99.90;;;;;;4936773;29;20051;-66
2022/11/06 04:14:23;;;;;;;6.70;2.65;;;9.10;99.90;;;;;;4937391;29;20126;-65
2022/11/06 04:16:53;;;;;;;4.65;2.17;;;9.10;99.90;;;;;;4937302;29;20113;-64
2022/11/06 04:19:21;;;;;;;4.28;2.13;;;9.10;99.90;;;;;;4920265;29;20040;-65
2022/11/06 04:22:00;;;;;;;5.45;2.05;;;9.00;99.90;;;;;;4937206;29;20040;-65
2022/11/06 04:27:50;;;;;;;3.92;2.53;;;9.10;99.90;;;;;;4937119;29;20102;-65
2022/11/06 04:30:20;;;;;;;6.93;2.60;;;9.00;99.90;;;;;;4937053;29;20050;-65
2022/11/06 04:33:04;;;;;;;4.82;2.42;;;9.00;99.90;;;;;;4937112;29;20480;-65
2022/11/06 04:35:48;;;;;;;4.00;2.13;;;9.10;99.90;;;;;;4919644;29;20040;-65
2022/11/06 04:38:33;;;;;;;6.22;2.28;;;9.20;99.90;;;;;;4919702;29;20083;-65
2022/11/06 04:41:08;;;;;;;4.25;2.25;;;9.10;99.90;;;;;;4936529;29;20392;-66
2022/11/06 04:43:44;;;;;;;4.97;2.53;;;9.00;99.90;;;;;;4936566;29;20130;-65
2022/11/06 04:46:15;;;;;;;3.85;2.15;;;9.10;99.90;;;;;;4936872;29;20040;-65
2022/11/06 04:48:41;;;;;;;3.55;2.58;;;9.10;99.90;;;;;;4936815;29;20079;-65
2022/11/06 04:51:10;;;;;;;5.00;2.00;;;9.10;99.90;;;;;;4936670;29;20055;-65
2022/11/06 04:53:36;;;;;;;3.88;2.38;;;9.10;99.90;;;;;;4936380;29;20058;-65
2022/11/06 04:56:12;;;;;;;8.30;2.75;;;9.10;99.90;;;;;;4936544;29;20043;-65
2022/11/06 04:58:38;;;;;;;3.95;2.75;;;9.10;99.90;;;;;;4919239;29;20136;-65
2022/11/06 05:01:04;;;;;;;4.18;2.45;;;9.10;99.90;;;;;;4919263;29;20244;-65
2022/11/06 05:03:30;;;;;;;5.95;2.40;;;9.00;99.90;;;;;;4919240;29;20134;-65
2022/11/06 05:05:56;;;;;;;3.15;2.28;;;9.10;99.90;;;;;;4936253;29;20134;-65
2022/11/06 05:08:22;;;;;;;5.32;2.55;;;9.10;99.90;;;;;;4919086;29;20043;-65
2022/11/06 05:10:47;;;;;;;4.20;2.40;;;9.10;99.90;;;;;;4936380;29;20035;-65
2022/11/06 05:13:14;;;;;;;5.22;1.77;;;9.10;99.90;;;;;;4936372;29;20093;-65
2022/11/06 05:15:40;;;;;;;5.30;1.95;;;9.10;99.90;;;;;;4918932;29;20052;-65
2022/11/06 05:18:06;;;;;;;2.58;2.15;;;9.10;99.90;;;;;;4935954;29;20039;-65
2022/11/06 05:20:32;;;;;;;4.72;2.35;;;9.10;99.90;;;;;;4936206;29;20392;-65
2022/11/06 05:23:01;;;;;;;2.95;2.08;;;9.10;99.90;;;;;;4935808;29;20047;-65
2022/11/06 05:25:30;;;;;;;3.03;1.95;;;9.10;99.90;;;;;;4935819;29;20054;-64
2022/11/06 05:27:56;;;;;;;6.88;2.30;;;9.10;99.90;;;;;;4936090;29;20044;-65
2022/11/06 05:30:24;;;;;;;4.65;2.45;;;9.10;99.90;;;;;;4918760;29;20156;-65
2022/11/06 05:32:49;;;;;;;4.05;2.45;;;9.10;99.90;;;;;;4935756;29;20086;-65
2022/11/06 05:35:16;;;;;;;3.30;2.20;;;9.10;99.90;;;;;;4935853;29;20074;-65
2022/11/06 05:37:42;;;;;;;3.38;2.15;;;9.60;99.90;;;;;;4935893;29;20428;-64
2022/11/06 05:40:08;;;;;;;6.03;2.30;;;9.10;99.90;;;;;;4918281;29;20090;-64
2022/11/06 05:42:39;;;;;;;3.33;2.08;;;9.20;99.90;;;;;;4935840;29;20035;-65
2022/11/06 05:45:05;;;;;;;4.10;2.30;;;9.50;99.90;;;;;;4935867;29;20039;-65
2022/11/06 05:47:31;;;;;;;4.82;1.85;;;9.20;99.90;;;;;;4918737;29;20090;-65
2022/11/06 05:49:57;;;;;;;3.45;1.90;;;9.20;99.90;;;;;;4935714;29;20102;-65
2022/11/06 05:52:23;;;;;;;2.92;1.52;;;9.20;99.90;;;;;;4935706;29;20392;-65
2022/11/06 05:54:48;;;;;;;3.72;1.60;;;9.20;99.90;;;;;;4935422;29;20389;-64
2022/11/06 05:57:14;;;;;;;3.20;1.98;;;9.20;99.90;;;;;;4918192;29;20048;-65
2022/11/06 05:59:40;;;;;;;2.47;1.90;;;9.20;99.90;;;;;;4935301;29;20404;-64
2022/11/06 06:02:06;;;;;;;2.88;1.70;;;9.20;99.90;;;;;;4918150;29;20078;-64
2022/11/06 06:04:32;;;;;;;4.72;1.50;;;9.30;99.90;;;;;;4918113;29;20079;-65
2022/11/06 06:06:57;;;;;;;3.97;1.63;;;9.20;99.90;;;;;;4935121;29;20039;-64
2022/11/06 06:09:23;;;;;;;4.25;1.73;;;9.20;99.90;;;;;;4935221;29;20044;-65
2022/11/06 06:11:53;;;;;;;4.28;1.80;;;9.20;99.90;;;;;;4935145;29;20055;-65
2022/11/06 06:14:21;;;;;;;1.98;1.60;;;9.20;99.90;;;;;;4935362;29;20107;-65
2022/11/06 06:16:47;;;;;;;2.33;1.40;;;9.30;99.90;;;;;;4935318;29;20040;-65
2022/11/06 06:19:13;;;;;;;3.38;1.80;;;9.20;99.90;;;;;;4935031;29;20040;-65
2022/11/06 06:21:39;;;;;;;3.15;1.73;;;9.20;99.90;;;;;;4935331;29;20035;-65
2022/11/06 06:24:05;;;;;;;5.20;2.08;;;9.30;99.90;;;;;;4918207;29;20048;-65
2022/11/06 06:26:31;;;;;;;2.60;1.58;;;9.20;99.90;;;;;;4918196;29;20044;-65
2022/11/06 06:28:57;;;;;;;2.38;1.33;;;9.30;99.90;;;;;;4935019;29;20175;-65
2022/11/06 06:31:22;;;;;;;4.18;1.65;;;9.30;99.90;;;;;;4938377;29;20075;-64
2022/11/06 06:33:48;;;;;;;3.17;1.70;;;9.30;99.90;;;;;;4939173;29;20451;-64
2022/11/06 06:36:14;;;;;;;3.92;2.17;;;9.60;99.90;;;;;;4939105;29;20130;-65
2022/11/06 06:38:40;;;;;;;6.43;2.00;;;9.30;99.90;;;;;;4938794;29;20099;-65
2022/11/06 06:41:07;;;;;;;3.90;1.60;;;9.30;99.90;;;;;;4938650;29;20060;-65
2022/11/06 06:43:34;;;;;;;2.15;1.15;;;9.30;99.90;;;;;;4939064;29;20079;-64
2022/11/06 06:46:01;;;;;;;4.97;2.10;;;9.40;99.90;;;;;;4938972;29;20082;-65
2022/11/06 06:48:27;;;;;;;4.40;1.48;;;9.50;99.90;;;;;;4938653;29;20048;-65
2022/11/06 06:50:56;;;;;;;2.88;1.30;;;9.50;99.90;;;;;;4938924;29;20090;-65
2022/11/06 06:53:22;;;;;;;2.40;1.35;;;9.50;99.90;;;;;;4938606;29;20045;-64
2022/11/06 06:55:48;;;;;;;2.38;1.33;;;9.50;99.90;;;;;;4938645;29;20451;-65
2022/11/06 06:58:13;;;;;;;7.15;1.98;;;9.60;99.90;;;;;;4921336;29;20462;-65
2022/11/06 07:00:39;;;;;;;3.35;1.42;;;9.60;99.90;;;;;;4938487;29;20052;-65
2022/11/06 07:03:05;;;;;;;2.30;1.25;;;9.60;99.90;;;;;;4938644;29;20483;-65
2022/11/06 07:05:31;;;;;;;3.42;1.23;;;9.70;99.90;;;;;;4938637;29;20055;-65
2022/11/06 07:07:56;;;;;;;4.38;1.73;;;9.70;99.90;;;;;;4921258;29;20047;-64
2022/11/06 07:10:22;;;;;;;2.97;1.52;;;9.70;99.90;;;;;;4921253;29;20047;-65
2022/11/06 07:12:48;;;;;;;2.45;1.50;;;9.70;99.90;;;;;;4938550;29;20048;-65
2022/11/06 07:15:14;;;;;;;1.65;1.25;;;9.70;99.90;;;;;;4921409;29;20043;-65
2022/11/06 07:17:39;;;;;;;3.92;1.48;;;9.70;99.90;;;;;;4938038;29;20063;-65
2022/11/06 07:20:06;;;;;;;3.17;1.50;;;9.70;99.90;;;;;;4921123;29;20123;-65
2022/11/06 07:22:31;;;;;;;2.45;1.30;;;9.80;99.90;;;;;;4938243;29;20052;-65
2022/11/06 07:24:57;;;;;;;3.10;1.33;;;9.90;99.90;;;;;;4938231;29;20044;-66
2022/11/06 07:27:23;;;;;;;3.28;1.42;;;9.80;99.90;;;;;;4920887;29;20044;-65
2022/11/06 07:29:49;;;;;;;3.60;1.30;;;9.70;99.90;;;;;;4938029;29;20108;-64
2022/11/06 07:32:15;;;;;;;1.60;1.10;;;9.70;99.90;;;;;;4937777;29;20129;-65
2022/11/06 07:34:40;;;;;;;5.40;1.45;;;9.70;99.90;;;;;;4920750;29;20126;-65
2022/11/06 07:37:06;;;;;;;2.92;1.10;;;9.70;99.90;;;;;;4938018;29;20047;-65
2022/11/06 07:39:32;;;;;;;1.85;1.10;;;9.70;99.90;;;;;;4920800;29;20562;-65
2022/11/06 07:41:58;;;;;;;4.32;1.15;;;10.50;99.90;;;;;;4937783;29;20068;-65
2022/11/06 07:44:24;;;;;;;2.22;1.15;;;9.70;99.90;;;;;;4937965;29;20051;-64
2022/11/06 07:46:49;;;;;;;2.83;1.25;;;9.70;99.90;;;;;;4937882;29;20043;-64
2022/11/06 07:49:15;;;;;;;2.95;1.48;;;9.70;99.90;;;;;;4937511;29;20052;-65
2022/11/06 07:51:44;;;;;;;2.20;1.30;;;9.80;99.90;;;;;;4920726;29;20127;-65
2022/11/06 07:54:10;;;;;;;1.63;1.00;;;9.80;99.90;;;;;;4937710;29;20040;-65
2022/11/06 07:56:36;;;;;;;1.77;1.25;;;9.80;99.90;;;;;;4920288;29;20047;-64
2022/11/06 07:59:02;;;;;;;2.75;1.70;;;9.90;99.90;;;;;;4937297;29;20038;-65
2022/11/06 08:01:28;;;;;;;3.75;1.40;;;9.90;99.90;;;;;;4937456;29;20086;-65
2022/11/06 08:03:54;;;;;;;3.08;0.90;;;9.90;99.90;;;;;;4937583;29;20448;-64
2022/11/06 08:06:20;;;;;;;6.78;1.30;;;9.90;99.90;;;;;;4920033;29;20050;-64
2022/11/06 08:08:45;;;;;;;1.38;0.90;;;9.90;99.90;;;;;;4937390;29;20123;-62
2022/11/06 08:11:12;;;;;;;1.80;1.02;;;9.90;99.90;;;;;;4937052;29;20051;-62
2022/11/06 08:13:38;;;;;;;1.23;0.98;;;9.90;99.90;;;;;;4937252;29;20118;-64
2022/11/06 08:16:05;;;;;;;1.33;0.93;;;9.80;99.90;;;;;;4937158;29;20098;-63
2022/11/06 08:18:31;;;;;;;3.33;1.40;;;9.80;99.90;;;;;;4937217;29;20042;-65
2022/11/06 08:20:57;;;;;;;1.02;0.80;;;9.80;99.90;;;;;;4937168;29;20079;-64
2022/11/06 08:23:23;;;;;;;1.75;1.05;;;9.90;99.90;;;;;;4936864;29;20094;-62
2022/11/06 08:25:51;;;;;;;1.67;1.00;;;9.90;99.90;;;;;;4936758;29;20051;-66
2022/11/06 08:28:17;;;;;;;2.38;1.10;;;9.90;99.90;;;;;;4937051;29;20427;-65
2022/11/06 08:30:43;;;;;;;2.88;1.10;;;10.00;99.90;;;;;;4937018;29;20131;-66
2022/11/06 08:33:09;;;;;;;2.92;1.10;;;10.00;99.90;;;;;;4919854;29;20075;-64
2022/11/06 08:35:35;;;;;;;1.23;1.05;;;10.10;99.90;;;;;;4919453;29;20052;-65
2022/11/06 08:38:02;;;;;;;4.35;1.73;;;10.10;99.90;;;;;;4936795;29;20091;-65
2022/11/06 08:40:27;;;;;;;3.72;1.25;;;10.10;99.90;;;;;;4936396;29;20044;-66
2022/11/06 08:43:00;;;;;;;8.23;1.23;;;10.10;99.90;;;;;;4936725;29;20115;-65
2022/11/06 08:45:27;;;;;;;3.28;1.40;;;10.10;99.90;;;;;;4936717;29;20059;-65
2022/11/06 08:47:52;;;;;;;2.25;1.17;;;10.10;99.90;;;;;;4936646;29;20406;-64
2022/11/06 08:50:18;;;;;;;2.28;1.15;;;10.10;99.90;;;;;;4936512;29;20047;-64
2022/11/06 08:52:44;;;;;;;1.88;1.38;;;10.10;99.90;;;;;;4935735;29;20047;-64
2022/11/06 08:55:09;;;;;;;1.85;1.20;;;10.10;99.90;;;;;;4936444;29;20044;-65
2022/11/06 08:57:35;;;;;;;1.92;1.17;;;10.10;99.90;;;;;;4936627;29;20086;-65
2022/11/06 09:00:01;;;;;;;3.95;1.23;;;10.10;99.90;;;;;;4936425;29;20035;-65
2022/11/06 09:02:26;;;;;;;2.70;1.45;;;10.10;99.90;;;;;;4935067;29;20039;-66
2022/11/06 09:04:52;;;;;;;3.97;1.83;;;10.10;99.90;;;;;;4936419;29;20404;-66
2022/11/06 09:07:17;;;;;;;1.48;0.90;;;10.10;99.90;;;;;;4936046;29;20118;-66
2022/11/06 09:09:43;;;;;;;2.45;1.13;;;10.60;99.90;;;;;;4936060;29;20054;-65
2022/11/06 09:12:09;;;;;;;2.38;1.40;;;10.10;99.90;;;;;;4935982;29;20047;-66
2022/11/06 09:14:35;;;;;;;1.30;0.88;;;10.20;99.90;;;;;;4936018;29;20131;-66
2022/11/06 09:17:01;;;;;;;2.65;0.90;;;10.10;99.90;;;;;;4936122;29;20117;-66
2022/11/06 09:19:26;;;;;;;4.72;1.30;;;10.20;99.90;;;;;;4936111;29;20097;-66
2022/11/06 09:21:52;;;;;;;1.88;1.02;;;10.30;99.90;;;;;;4919180;29;20039;-66
2022/11/06 09:24:18;;;;;;;2.92;0.90;;;10.40;99.90;;;;;;4935740;29;20043;-65
2022/11/06 09:26:44;;;;;;;2.53;1.23;;;10.40;99.90;;;;;;4936144;29;20106;-65
2022/11/06 09:29:09;;;;;;;2.40;1.13;;;10.50;99.90;;;;;;4918888;29;20131;-66
2022/11/06 09:31:35;;;;;;;1.95;0.95;;;10.50;99.90;;;;;;4936006;29;20070;-66
2022/11/06 09:34:02;;;;;;;2.63;1.23;;;10.50;99.90;;;;;;4918833;29;20098;-66
2022/11/06 09:36:27;;;;;;;2.28;1.20;;;10.60;99.90;;;;;;4918738;29;20055;-66
2022/11/06 09:38:53;;;;;;;3.05;1.02;;;10.70;99.90;;;;;;4934516;29;20044;-66
2022/11/06 09:41:42;;;;;;;0.98;0.90;;;10.80;99.90;;;;;;4935342;29;20479;-66
2022/11/06 09:44:32;;;;;;;4.88;1.27;;;10.90;99.90;;;;;;4935164;29;20083;-66
2022/11/06 09:47:13;;;;;;;2.22;1.13;;;10.90;99.90;;;;;;4918477;29;20046;-66
2022/11/06 09:49:54;;;;;;;0.65;0.65;;;11.00;99.90;;;;;;4935767;29;20513;-65
2022/11/06 09:52:41;;;;;;;2.90;1.17;;;11.10;99.90;;;;;;4918653;29;20047;-66
2022/11/06 09:55:29;;;;;;;2.00;1.08;;;11.10;99.90;;;;;;4935532;29;20044;-66
2022/11/06 09:57:59;;;;;;;2.83;1.00;;;11.30;99.90;;;;;;4935655;29;20154;-66
2022/11/06 10:00:25;;;;;;;1.08;0.77;;;11.40;99.90;;;;;;4935577;29;20043;-66
2022/11/06 10:03:04;;;;;;;3.67;1.00;;;11.40;99.90;;;;;;4935549;29;20114;-67
2022/11/06 10:05:36;;;;;;;3.92;1.02;;;11.40;99.90;;;;;;4917267;29;20050;-67
2022/11/06 10:08:19;;;;;;;1.17;0.88;;;11.50;99.90;;;;;;4918190;29;20130;-67
2022/11/06 10:10:58;;;;;;;1.48;1.15;;;11.50;99.90;;;;;;4935156;29;20083;-67
2022/11/06 10:14:04;;;;;;;1.30;0.98;;;11.50;99.90;;;;;;4935430;29;20154;-67
2022/11/06 10:16:54;;;;;;;1.48;1.08;;;11.60;99.90;;;;;;4918009;29;20126;-67
2022/11/06 10:19:47;;;;;;;0.90;0.68;;;11.60;99.90;;;;;;4918113;29;20047;-68
2022/11/06 10:22:23;;;;;;;2.42;1.10;;;11.60;99.90;;;;;;4918041;29;20079;-67
2022/11/06 10:24:57;;;;;;;1.85;0.70;;;11.60;99.90;;;;;;4918356;29;20136;-67
2022/11/06 10:27:42;;;;;;;3.83;0.90;;;11.60;99.90;;;;;;4935317;29;20050;-67
2022/11/06 10:30:15;;;;;;;2.72;0.82;;;11.60;99.90;;;;;;4935257;29;20095;-67
2022/11/06 10:33:02;;;;;;;3.00;1.20;;;11.60;99.90;;;;;;4935271;29;20098;-67
2022/11/06 10:35:47;;;;;;;1.15;0.63;;;11.60;99.90;;;;;;4918166;29;20498;-67
2022/11/06 10:38:17;;;;;;;2.38;0.90;;;11.50;99.90;;;;;;4917875;29;20048;-67
2022/11/06 10:40:47;;;;;;;1.58;0.80;;;11.50;99.90;;;;;;4934995;29;20091;-67
2022/11/06 10:43:28;;;;;;;2.40;1.10;;;11.50;99.90;;;;;;4935224;29;20051;-67
2022/11/06 10:46:07;;;;;;;3.75;1.27;;;11.40;99.90;;;;;;4917833;29;20058;-67
2022/11/06 10:48:39;;;;;;;2.38;1.17;;;11.40;99.90;;;;;;4935193;29;20436;-67
2022/11/06 10:51:32;;;;;;;0.98;0.88;;;11.30;99.90;;;;;;4935066;29;20052;-66
2022/11/06 10:54:03;;;;;;;1.88;1.33;;;11.20;99.90;;;;;;4934780;29;20047;-66
2022/11/06 10:56:57;;;;;;;7.03;1.20;;;11.10;99.90;;;;;;4934683;29;20134;-66
2022/11/06 10:59:23;;;;;;;3.20;1.30;;;11.00;99.90;;;;;;4934748;29;20047;-66
2022/11/06 11:01:49;;;;;;;1.55;1.02;;;11.00;99.90;;;;;;4934751;29;20043;-66
2022/11/06 11:04:14;;;;;;;1.00;0.80;;;11.20;99.90;;;;;;4934710;29;20039;-66
2022/11/06 11:06:40;;;;;;;2.03;1.10;;;11.00;99.90;;;;;;4934669;29;20044;-66
2022/11/06 11:09:35;;;;;;;1.20;1.10;;;11.20;99.90;;;;;;4902181;29;20058;-66
2022/11/06 11:12:01;;;;;;;4.25;0.85;;;10.90;99.90;;;;;;4921998;29;20083;-64
2022/11/06 11:14:29;;;;;;;1.80;1.20;;;10.90;99.90;;;;;;4934893;29;20044;-66
2022/11/06 11:16:59;;;;;;;3.03;2.00;;;11.00;99.90;;;;;;4936961;29;20058;-65
2022/11/06 11:19:31;;;;;;;4.93;1.63;;;11.20;99.90;;;;;;4938486;29;20503;-66
2022/11/06 11:22:19;;;;;;;2.92;1.33;;;11.30;99.90;;;;;;4938084;29;20098;-67
2022/11/06 11:25:23;;;;;;;10.23;1.70;;;11.40;99.90;;;;;;4938053;29;20122;-65
2022/11/06 11:27:48;;;;;;;5.10;1.55;;;11.60;99.90;;;;;;4920705;29;20515;-66
2022/11/06 11:30:25;;;;;;;3.70;2.42;;;11.70;99.90;;;;;;4938185;29;20048;-66
2022/11/06 11:32:52;;;;;;;1.52;0.95;;;11.70;99.90;;;;;;4937890;29;20110;-66
2022/11/06 11:35:22;;;;;;;7.03;1.50;;;11.80;99.90;;;;;;4938054;29;20044;-66
2022/11/06 11:37:48;;;;;;;3.35;1.35;;;11.80;99.90;;;;;;4920731;29;20047;-66
2022/11/06 11:40:34;;;;;;;2.33;0.75;;;11.80;99.90;;;;;;4937694;29;20423;-67
2022/11/06 11:43:18;;;;;;;3.83;1.50;;;11.80;99.90;;;;;;4937700;29;20040;-67
2022/11/06 11:46:11;;;;;;;8.30;1.35;;;11.80;99.90;;;;;;4937991;29;20079;-63
2022/11/06 11:48:51;;;;;;;2.20;1.20;;;11.80;99.90;;;;;;4934928;29;20519;-63
2022/11/06 11:51:35;;;;;;;2.45;1.15;;;11.90;99.90;;;;;;4937519;29;20123;-63
2022/11/06 11:54:10;;;;;;;2.67;1.60;;;11.90;99.90;;;;;;4937789;29;20107;-64
2022/11/06 11:56:49;;;;;;;2.40;1.00;;;12.00;99.90;;;;;;4937426;29;20051;-62
2022/11/06 11:59:28;;;;;;;2.38;1.02;;;12.00;99.90;;;;;;4937697;29;20392;-62
2022/11/06 12:02:01;;;;;;;1.30;1.00;;;12.10;99.90;;;;;;4937711;29;20142;-63
2022/11/06 12:04:35;;;;;;;3.55;1.10;;;12.10;99.90;;;;;;4937651;29;20472;-63
2022/11/06 12:07:05;;;;;;;1.60;0.90;;;12.10;99.90;;;;;;4937563;29;20039;-63
2022/11/06 12:09:39;;;;;;;3.17;0.93;;;12.10;99.90;;;;;;4904523;29;20054;-62
2022/11/06 12:12:05;;;;;;;2.17;1.00;;;12.10;99.90;;;;;;4937507;29;20415;-63
2022/11/06 12:14:33;;;;;;;1.00;0.73;;;12.20;99.90;;;;;;4937124;29;20043;-62
2022/11/06 12:17:19;;;;;;;4.65;0.95;;;12.20;99.90;;;;;;4920051;29;20059;-63
2022/11/06 12:19:51;;;;;;;3.97;1.50;;;12.30;99.90;;;;;;4937049;29;20050;-63
2022/11/06 12:22:34;;;;;;;4.68;1.38;;;12.30;99.90;;;;;;4937264;29;20507;-63
2022/11/06 12:25:12;;;;;;;0.60;0.60;;;12.40;99.90;;;;;;4937229;29;20110;-63
2022/11/06 12:27:42;;;;;;;1.73;0.70;;;12.40;99.90;;;;;;4935974;29;20031;-61
2022/11/06 12:30:15;;;;;;;6.47;0.85;;;12.50;99.90;;;;;;4937121;29;20039;-60
2022/11/06 12:32:46;;;;;;;1.58;0.82;;;12.50;99.90;;;;;;4937126;29;20495;-60
2022/11/06 12:35:15;;;;;;;2.92;0.73;;;12.60;99.90;;;;;;4936971;29;20035;-61
2022/11/06 12:37:53;;;;;;;10.05;1.27;;;12.60;99.90;;;;;;4919649;29;20050;-61
2022/11/06 12:40:31;;;;;;;1.13;0.70;;;12.60;99.90;;;;;;4936543;29;20059;-61
2022/11/06 12:43:16;;;;;;;3.90;0.95;;;12.60;99.90;;;;;;4936670;29;20039;-61
2022/11/06 12:46:17;;;;;;;1.98;0.85;;;12.60;99.90;;;;;;4936869;29;20044;-61
2022/11/06 12:49:17;;;;;;;0.93;0.70;;;12.60;99.90;;;;;;4936833;29;20039;-60
2022/11/06 12:51:49;;;;;;;7.95;0.73;;;12.50;99.90;;;;;;4936710;29;20050;-60
2022/11/06 12:58:14;;;;;;;1.50;0.80;;;12.50;99.90;;;;;;4790635;23;20056;-62
2022/11/06 13:01:19;;;;;;;1.17;0.82;;;12.30;99.90;;;;;;4955702;29;20506;-61
2022/11/06 13:04:10;;;;;;;2.13;0.75;;;12.20;99.90;;;;;;4926198;29;20047;-61
2022/11/06 13:06:54;;;;;;;2.10;1.08;;;12.20;99.90;;;;;;4919813;29;20098;-61
2022/11/06 13:09:38;;;;;;;6.25;1.17;;;12.20;99.90;;;;;;4956520;29;20126;-62
2022/11/06 13:14:54;;;;;;;4.90;1.23;;;12.20;99.90;;;;;;4269651;26;20067;-65
2022/11/06 13:17:29;;;;;;;1.83;1.15;;;12.10;99.90;;;;;;4937000;29;20055;-65
2022/11/06 13:20:09;;;;;;;1.23;0.80;;;12.10;99.90;;;;;;4937154;29;20067;-65
2022/11/06 13:22:39;;;;;;;1.42;0.80;;;12.10;99.90;;;;;;4937155;29;20130;-65
2022/11/06 13:25:11;;;;;;;6.47;0.70;;;12.10;99.90;;;;;;4937052;29;20043;-65
2022/11/06 13:27:37;;;;;;;1.27;0.70;;;12.10;99.90;;;;;;4936771;29;20047;-65
2022/11/06 13:33:52;;;;;;;1.80;0.90;;;12.10;99.90;;;;;;5004636;23;20130;-72
2022/11/06 13:36:19;;;;;;;1.83;0.80;;;12.10;99.90;;;;;;4922544;29;20039;-73
2022/11/06 13:38:55;;;;;;;1.30;0.80;;;12.10;99.90;;;;;;4938320;29;20050;-73